createdAt,value
2018-10-18T00:01:17.044Z,101792.02
2018-10-18T00:03:45.603Z,101800.41
2018-10-18T00:06:14.227Z,101796.33
2018-10-18T00:08:42.726Z,101796.33
2018-10-18T00:11:11.242Z,101798.91
2018-10-18T00:13:39.760Z,101797.84
2018-10-18T00:16:08.753Z,101797.75
2018-10-18T00:18:37.246Z,101794.75
2018-10-18T00:21:06.391Z,101790.42
2018-10-18T00:23:34.936Z,101792.41
2018-10-18T00:26:05.647Z,101793.60
2018-10-18T00:28:34.206Z,101796.17
2018-10-18T00:31:04.477Z,101796.84
2018-10-18T00:33:33.071Z,101798.38
2018-10-18T00:36:03.338Z,101804.34
2018-10-18T00:38:32.110Z,101803.91
2018-10-18T00:41:00.690Z,101804.04
2018-10-18T00:43:29.211Z,101802.39
2018-10-18T00:45:57.723Z,101802.30
2018-10-18T00:48:26.260Z,101798.14
2018-10-18T00:50:55.314Z,101805.58
2018-10-18T00:53:23.801Z,101807.53
2018-10-18T00:55:52.311Z,101807.53
2018-10-18T00:58:20.828Z,101808.06
2018-10-18T01:00:49.465Z,101808.89
2018-10-18T01:03:17.972Z,101808.52
2018-10-18T01:05:46.828Z,101810.25
2018-10-18T01:08:15.411Z,101815.02
2018-10-18T01:10:44.036Z,101816.62
2018-10-18T01:13:12.576Z,101814.73
2018-10-18T01:15:41.121Z,101814.35
2018-10-18T01:18:10.029Z,101809.42
2018-10-18T01:20:38.606Z,101806.31
2018-10-18T01:23:07.560Z,101806.18
2018-10-18T01:25:36.084Z,101807.23
2018-10-18T01:28:05.760Z,101814.50
2018-10-18T01:30:34.288Z,101813.52
2018-10-18T01:33:04.787Z,101812.08
2018-10-18T01:35:33.311Z,101807.66
2018-10-18T01:38:03.065Z,101808.76
2018-10-18T01:40:31.693Z,101805.87
2018-10-18T01:43:00.197Z,101811.38
2018-10-18T01:45:29.065Z,101818.30
2018-10-18T01:47:57.686Z,101817.08
2018-10-18T01:50:26.157Z,101818.44
2018-10-18T01:52:54.661Z,101815.86
2018-10-18T01:55:23.196Z,101813.63
2018-10-18T01:57:51.721Z,101808.59
2018-10-18T02:00:20.385Z,101812.78
2018-10-18T02:02:48.853Z,101806.33
2018-10-18T02:05:17.464Z,101801.59
2018-10-18T02:07:45.992Z,101804.83
2018-10-18T02:10:14.689Z,101809.22
2018-10-18T02:12:43.215Z,101812.32
2018-10-18T02:15:11.880Z,101816.89
2018-10-18T02:17:41.056Z,101813.50
2018-10-18T02:20:10.444Z,101820.83
2018-10-18T02:22:39.269Z,101819.09
2018-10-18T02:25:08.159Z,101826.39
2018-10-18T02:27:36.735Z,101819.00
2018-10-18T02:30:06.433Z,101826.11
2018-10-18T02:32:34.929Z,101827.92
2018-10-18T02:35:06.298Z,101827.31
2018-10-18T02:37:34.842Z,101826.04
2018-10-18T02:40:04.096Z,101827.45
2018-10-18T02:42:32.649Z,101824.41
2018-10-18T02:45:02.732Z,101833.20
2018-10-18T02:47:31.275Z,101820.67
2018-10-18T02:50:00.026Z,101821.55
2018-10-18T02:52:28.784Z,101820.25
2018-10-18T02:54:57.311Z,101819.33
2018-10-18T02:57:25.854Z,101815.41
2018-10-18T02:59:54.447Z,101808.98
2018-10-18T03:02:22.970Z,101815.41
2018-10-18T03:04:51.465Z,101823.72
2018-10-18T03:07:20.053Z,101820.61
2018-10-18T03:09:48.565Z,101820.64
2018-10-18T03:12:17.163Z,101819.89
2018-10-18T03:14:45.640Z,101830.48
2018-10-18T03:17:14.186Z,101820.80
2018-10-18T03:19:42.695Z,101825.59
2018-10-18T03:22:11.233Z,101827.39
2018-10-18T03:24:39.786Z,101824.31
2018-10-18T03:27:08.316Z,101823.05
2018-10-18T03:29:40.268Z,101823.72
2018-10-18T03:32:08.813Z,101827.50
2018-10-18T03:34:38.876Z,101836.28
2018-10-18T03:37:07.406Z,101826.34
2018-10-18T03:39:35.934Z,101829.60
2018-10-18T03:42:05.203Z,101828.06
2018-10-18T03:44:33.707Z,101832.17
2018-10-18T03:47:05.692Z,101832.59
2018-10-18T03:49:34.250Z,101833.24
2018-10-18T03:52:04.887Z,101833.36
2018-10-18T03:54:33.592Z,101834.80
2018-10-18T03:57:03.749Z,101841.81
2018-10-18T03:59:32.314Z,101841.16
2018-10-18T04:02:00.917Z,101840.97
2018-10-18T04:04:29.801Z,101836.16
2018-10-18T04:06:58.305Z,101842.66
2018-10-18T04:09:27.207Z,101841.31
2018-10-18T04:11:55.831Z,101843.27
2018-10-18T04:14:24.355Z,101839.84
2018-10-18T04:16:52.950Z,101842.33
2018-10-18T04:19:21.491Z,101837.78
2018-10-18T04:21:50.000Z,101838.81
2018-10-18T04:24:18.581Z,101838.83
2018-10-18T04:26:47.133Z,101843.22
2018-10-18T04:29:15.670Z,101837.78
2018-10-18T04:31:44.260Z,101840.92
2018-10-18T04:34:12.844Z,101839.05
2018-10-18T04:36:41.724Z,101843.44
2018-10-18T04:39:12.756Z,101840.50
2018-10-18T04:41:41.318Z,101838.30
2018-10-18T04:44:09.897Z,101840.60
2018-10-18T04:46:38.559Z,101834.75
2018-10-18T04:49:07.077Z,101836.52
2018-10-18T04:51:35.655Z,101836.72
2018-10-18T04:54:05.609Z,101843.92
2018-10-18T04:56:34.142Z,101843.17
2018-10-18T04:59:04.190Z,101847.75
2018-10-18T05:01:32.852Z,101850.80
2018-10-18T05:04:05.138Z,101849.51
2018-10-18T05:06:33.690Z,101851.27
2018-10-18T05:09:05.990Z,101850.44
2018-10-18T05:11:34.562Z,101848.65
2018-10-18T05:14:05.192Z,101851.20
2018-10-18T05:16:34.009Z,101851.25
2018-10-18T05:19:04.630Z,101842.06
2018-10-18T05:21:33.169Z,101850.99
2018-10-18T05:24:03.609Z,101858.67
2018-10-18T05:26:32.116Z,101855.99
2018-10-18T05:29:00.621Z,101857.27
2018-10-18T05:31:29.224Z,101855.64
2018-10-18T05:33:57.833Z,101855.84
2018-10-18T05:36:26.642Z,101854.34
2018-10-18T05:38:55.149Z,101855.88
2018-10-18T05:41:24.176Z,101864.35
2018-10-18T05:43:52.783Z,101868.86
2018-10-18T05:46:21.295Z,101871.30
2018-10-18T05:48:49.808Z,101868.42
2018-10-18T05:51:18.363Z,101867.87
2018-10-18T05:53:46.904Z,101875.09
2018-10-18T05:56:15.414Z,101881.41
2018-10-18T05:58:44.696Z,101881.44
2018-10-18T06:01:13.441Z,101884.04
2018-10-18T06:03:41.959Z,101874.37
2018-10-18T06:06:10.496Z,101871.69
2018-10-18T06:08:39.058Z,101879.23
2018-10-18T06:11:18.878Z,101888.88
2018-10-18T06:13:47.529Z,101881.86
2018-10-18T06:16:16.049Z,101888.30
2018-10-18T06:18:44.551Z,101898.48
2018-10-18T06:21:13.235Z,101898.30
2018-10-18T06:23:41.764Z,101904.64
2018-10-18T06:26:10.348Z,101905.82
2018-10-18T06:28:39.256Z,101913.71
2018-10-18T06:31:07.842Z,101922.30
2018-10-18T06:33:36.363Z,101925.30
2018-10-18T06:36:05.737Z,101923.71
2018-10-18T06:38:34.234Z,101927.06
2018-10-18T06:41:04.420Z,101927.73
2018-10-18T06:43:38.647Z,101924.06
2018-10-18T06:46:09.432Z,101928.11
2018-10-18T06:48:38.015Z,101929.64
2018-10-18T06:51:06.813Z,101934.33
2018-10-18T06:53:37.019Z,101928.66
2018-10-18T06:56:12.269Z,101926.26
2018-10-18T06:58:40.835Z,101931.49
2018-10-18T07:01:09.382Z,101932.50
2018-10-18T07:03:37.952Z,101939.16
2018-10-18T07:06:06.559Z,101933.86
2018-10-18T07:08:35.095Z,101939.39
2018-10-18T07:11:05.571Z,101936.75
2018-10-18T07:13:33.931Z,101939.03
2018-10-18T07:16:03.930Z,101941.64
2018-10-18T07:18:32.478Z,101943.17
2018-10-18T07:21:04.308Z,101941.05
2018-10-18T07:23:32.917Z,101945.42
2018-10-18T07:26:03.248Z,101942.86
2018-10-18T07:28:31.820Z,101949.44
2018-10-18T07:31:00.357Z,101955.22
2018-10-18T07:33:28.907Z,101960.19
2018-10-18T07:35:57.460Z,101958.31
2018-10-18T07:38:26.060Z,101965.91
2018-10-18T07:40:54.602Z,101973.32
2018-10-18T07:43:23.319Z,101972.44
2018-10-18T07:45:51.923Z,101972.75
2018-10-18T07:48:20.436Z,101980.48
2018-10-18T07:50:48.977Z,101974.75
2018-10-18T07:53:17.642Z,101975.98
2018-10-18T07:55:46.124Z,101969.23
2018-10-18T07:58:14.674Z,101972.59
2018-10-18T08:00:43.677Z,101976.25
2018-10-18T08:03:12.372Z,101975.42
2018-10-18T08:05:40.977Z,101970.62
2018-10-18T08:08:09.524Z,101976.45
2018-10-18T08:10:38.322Z,101982.83
2018-10-18T08:13:07.498Z,101981.09
2018-10-18T08:15:36.084Z,101982.31
2018-10-18T08:18:06.274Z,101985.47
2018-10-18T08:20:34.859Z,101983.75
2018-10-18T08:23:04.536Z,101983.34
2018-10-18T08:25:33.079Z,101982.05
2018-10-18T08:28:02.968Z,101988.27
2018-10-18T08:30:31.487Z,101984.92
2018-10-18T08:33:00.001Z,101988.34
2018-10-18T08:35:28.790Z,101990.69
2018-10-18T08:37:57.455Z,101983.41
2018-10-18T08:40:25.922Z,102001.44
2018-10-18T08:42:54.434Z,101995.67
2018-10-18T08:45:23.227Z,101991.09
2018-10-18T08:47:51.732Z,102001.12
2018-10-18T08:50:20.352Z,102002.58
2018-10-18T08:52:49.103Z,101995.56
2018-10-18T08:55:17.702Z,101991.47
2018-10-18T08:57:46.196Z,101999.72
2018-10-18T09:00:14.837Z,102000.53
2018-10-18T09:02:43.683Z,102001.40
2018-10-18T09:05:12.658Z,102005.45
2018-10-18T09:07:41.170Z,102003.92
2018-10-18T09:10:09.839Z,102009.59
2018-10-18T09:12:38.499Z,102005.08
2018-10-18T09:15:08.214Z,102011.58
2018-10-18T09:17:36.913Z,102012.77
2018-10-18T09:20:05.810Z,102019.06
2018-10-18T09:22:34.437Z,102023.77
2018-10-18T09:25:04.408Z,102027.55
2018-10-18T09:27:32.876Z,102034.38
2018-10-18T09:30:03.343Z,102034.38
2018-10-18T09:32:32.316Z,102039.87
2018-10-18T09:35:00.899Z,102044.36
2018-10-18T09:37:29.462Z,102042.39
2018-10-18T09:39:57.980Z,102045.34
2018-10-18T09:42:26.583Z,102042.09
2018-10-18T09:44:55.322Z,102045.94
2018-10-18T09:47:23.725Z,102044.88
2018-10-18T09:49:52.453Z,102048.84
2018-10-18T09:52:20.990Z,102045.94
2018-10-18T09:54:49.998Z,102044.44
2018-10-18T09:57:18.603Z,102047.86
2018-10-18T09:59:47.079Z,102036.98
2018-10-18T10:02:20.852Z,102034.25
2018-10-18T10:04:49.367Z,102046.22
2018-10-18T10:07:18.146Z,102041.58
2018-10-18T10:09:46.704Z,102049.30
2018-10-18T10:12:15.255Z,102050.45
2018-10-18T10:14:43.821Z,102050.45
2018-10-18T10:17:12.436Z,102060.72
2018-10-18T10:19:41.067Z,102060.78
2018-10-18T10:22:09.563Z,102062.48
2018-10-18T10:24:38.170Z,102072.05
2018-10-18T10:27:06.750Z,102072.54
2018-10-18T10:29:35.473Z,102066.94
2018-10-18T10:32:05.765Z,102071.02
2018-10-18T10:34:34.290Z,102073.64
2018-10-18T10:37:04.737Z,102069.81
2018-10-18T10:39:33.303Z,102067.09
2018-10-18T10:42:02.564Z,102063.52
2018-10-18T10:44:31.050Z,102074.23
2018-10-18T10:46:59.658Z,102063.70
2018-10-18T10:49:28.247Z,102063.63
2018-10-18T10:51:56.862Z,102062.54
2018-10-18T10:54:25.467Z,102065.39
2018-10-18T10:56:54.071Z,102067.89
2018-10-18T10:59:22.574Z,102067.28
2018-10-18T11:01:51.130Z,102069.17
2018-10-18T11:04:19.726Z,102075.01
2018-10-18T11:06:48.263Z,102070.43
2018-10-18T11:09:16.966Z,102068.55
2018-10-18T11:11:45.383Z,102065.08
2018-10-18T11:14:14.042Z,102062.62
2018-10-18T11:16:42.553Z,102062.43
2018-10-18T11:19:11.076Z,102063.78
2018-10-18T11:21:39.748Z,102061.45
2018-10-18T11:24:08.366Z,102053.70
2018-10-18T11:26:36.841Z,102057.37
2018-10-18T11:29:05.960Z,102058.81
2018-10-18T11:31:34.574Z,102058.77
2018-10-18T11:34:05.142Z,102061.08
2018-10-18T11:36:33.695Z,102056.54
2018-10-18T11:39:10.119Z,102062.43
2018-10-18T11:41:38.715Z,102058.34
2018-10-18T11:44:07.345Z,102062.94
2018-10-18T11:46:35.976Z,102059.37
2018-10-18T11:49:05.378Z,102057.14
2018-10-18T11:51:34.477Z,102058.23
2018-10-18T11:54:05.193Z,102056.98
2018-10-18T11:56:33.770Z,102060.36
2018-10-18T11:59:03.802Z,102054.41
2018-10-18T12:01:32.696Z,102046.99
2018-10-18T12:04:04.129Z,102048.84
2018-10-18T12:06:32.691Z,102050.20
2018-10-18T12:09:03.132Z,102050.04
2018-10-18T12:11:31.713Z,102052.88
2018-10-18T12:14:00.278Z,102054.91
2018-10-18T12:16:28.914Z,102053.87
2018-10-18T12:18:57.560Z,102053.30
2018-10-18T12:21:26.987Z,102052.09
2018-10-18T12:23:55.573Z,102051.58
2018-10-18T12:26:24.568Z,102054.98
2018-10-18T12:28:53.193Z,102056.55
2018-10-18T12:31:21.749Z,102051.44
2018-10-18T12:33:50.296Z,102052.77
2018-10-18T12:36:19.163Z,102058.68
2018-10-18T12:38:48.038Z,102060.53
2018-10-18T12:41:18.535Z,102057.08
2018-10-18T12:43:46.912Z,102065.05
2018-10-18T12:46:15.832Z,102054.51
2018-10-18T12:48:44.371Z,102056.45
2018-10-18T12:51:13.029Z,102047.78
2018-10-18T12:53:41.595Z,102053.67
2018-10-18T12:56:10.299Z,102050.73
2018-10-18T12:58:38.798Z,102052.34
2018-10-18T13:01:07.400Z,102046.83
2018-10-18T13:03:35.944Z,102044.85
2018-10-18T13:06:05.245Z,102048.37
2018-10-18T13:08:33.845Z,102044.80
2018-10-18T13:11:03.740Z,102041.52
2018-10-18T13:13:32.479Z,102046.00
2018-10-18T13:16:03.210Z,102045.69
2018-10-18T13:18:31.819Z,102045.16
2018-10-18T13:21:00.445Z,102042.67
2018-10-18T13:23:29.095Z,102046.23
2018-10-18T13:25:57.705Z,102046.39
2018-10-18T13:28:26.287Z,102036.39
2018-10-18T13:30:54.845Z,102050.69
2018-10-18T13:33:23.406Z,102040.23
2018-10-18T13:35:52.012Z,102049.57
2018-10-18T13:38:20.582Z,102042.95
2018-10-18T13:40:49.236Z,102040.16
2018-10-18T13:43:17.962Z,102039.05
2018-10-18T13:45:46.485Z,102042.44
2018-10-18T13:48:15.079Z,102041.30
2018-10-18T13:50:43.653Z,102034.76
2018-10-18T13:53:12.226Z,102040.22
2018-10-18T13:55:40.812Z,102031.22
2018-10-18T13:58:09.869Z,102034.66
2018-10-18T14:00:39.637Z,102031.62
2018-10-18T14:03:08.223Z,102026.47
2018-10-18T14:05:36.875Z,102030.73
2018-10-18T14:08:05.921Z,102035.02
2018-10-18T14:10:34.413Z,102033.61
2018-10-18T14:13:04.862Z,102029.01
2018-10-18T14:15:33.414Z,102030.56
2018-10-18T14:18:02.737Z,102027.06
2018-10-18T14:20:31.593Z,102030.84
2018-10-18T14:23:00.203Z,102027.70
2018-10-18T14:25:30.685Z,102029.22
2018-10-18T14:27:59.291Z,102024.62
2018-10-18T14:30:27.861Z,102031.80
2018-10-18T14:32:56.362Z,102031.62
2018-10-18T14:35:24.942Z,102031.38
2018-10-18T14:37:53.617Z,102033.96
2018-10-18T14:40:22.302Z,102028.38
2018-10-18T14:42:50.840Z,102035.98
2018-10-18T14:45:19.522Z,102031.91
2018-10-18T14:47:48.156Z,102026.42
2018-10-18T14:50:16.756Z,102029.70
2018-10-18T14:52:45.204Z,102026.76
2018-10-18T14:55:22.530Z,102022.66
2018-10-18T14:57:51.192Z,102022.77
2018-10-18T15:00:19.713Z,102018.05
2018-10-18T15:02:48.268Z,102023.59
2018-10-18T15:05:16.877Z,102017.72
2018-10-18T15:07:45.431Z,102023.77
2018-10-18T15:10:14.718Z,102020.78
2018-10-18T15:12:43.502Z,102022.92
2018-10-18T15:15:13.353Z,102021.97
2018-10-18T15:17:42.176Z,102028.03
2018-10-18T15:20:11.653Z,102034.73
2018-10-18T15:22:41.237Z,102034.52
2018-10-18T15:25:11.571Z,102035.48
2018-10-18T15:27:40.518Z,102032.75
2018-10-18T15:30:09.914Z,102040.20
2018-10-18T15:32:39.192Z,102040.39
2018-10-18T15:35:08.899Z,102043.92
2018-10-18T15:37:37.649Z,102038.06
2018-10-18T15:40:06.735Z,102036.51
2018-10-18T15:42:35.495Z,102046.05
2018-10-18T15:45:05.714Z,102048.75
2018-10-18T15:47:34.320Z,102053.77
2018-10-18T15:50:06.054Z,102049.05
2018-10-18T15:52:34.701Z,102055.32
2018-10-18T15:55:06.033Z,102057.75
2018-10-18T15:57:34.603Z,102053.98
2018-10-18T16:00:06.655Z,102057.55
2018-10-18T16:02:35.906Z,102063.31
2018-10-18T16:05:06.078Z,102067.47
2018-10-18T16:07:34.507Z,102062.08
2018-10-18T16:10:05.415Z,102065.84
2018-10-18T16:12:33.955Z,102070.48
2018-10-18T16:15:04.077Z,102070.94
2018-10-18T16:17:32.738Z,102070.22
2018-10-18T16:20:04.165Z,102066.27
2018-10-18T16:22:32.739Z,102074.98
2018-10-18T16:25:03.525Z,102082.48
2018-10-18T16:27:32.256Z,102080.02
2018-10-18T16:30:00.767Z,102088.78
2018-10-18T16:32:29.323Z,102093.11
2018-10-18T16:34:57.887Z,102091.22
2018-10-18T16:37:26.398Z,102104.94
2018-10-18T16:39:54.953Z,102100.60
2018-10-18T16:42:23.490Z,102098.67
2018-10-18T16:44:52.092Z,102107.63
2018-10-18T16:47:20.651Z,102102.90
2018-10-18T16:49:49.273Z,102103.41
2018-10-18T16:52:18.244Z,102111.90
2018-10-18T16:54:46.790Z,102114.97
2018-10-18T16:57:15.384Z,102109.67
2018-10-18T16:59:43.966Z,102113.84
2018-10-18T17:02:12.555Z,102119.42
2018-10-18T17:04:41.169Z,102115.16
2018-10-18T17:07:09.748Z,102122.80
2018-10-18T17:09:38.297Z,102124.16
2018-10-18T17:12:07.248Z,102123.22
2018-10-18T17:14:35.857Z,102127.91
2018-10-18T17:17:05.717Z,102133.14
2018-10-18T17:19:34.289Z,102136.17
2018-10-18T17:22:04.538Z,102142.22
2018-10-18T17:24:33.126Z,102139.81
2018-10-18T17:27:03.192Z,102140.12
2018-10-18T17:29:31.628Z,102141.59
2018-10-18T17:32:00.209Z,102142.31
2018-10-18T17:34:28.775Z,102152.95
2018-10-18T17:36:57.358Z,102148.97
2018-10-18T17:39:25.875Z,102149.84
2018-10-18T17:41:54.404Z,102147.33
2018-10-18T17:44:23.312Z,102141.41
2018-10-18T17:46:51.831Z,102148.77
2018-10-18T17:49:20.312Z,102141.77
2018-10-18T17:51:48.938Z,102145.00
2018-10-18T17:54:17.591Z,102151.45
2018-10-18T17:56:46.195Z,102149.98
2018-10-18T17:59:14.807Z,102161.02
2018-10-18T18:01:43.943Z,102154.94
2018-10-18T18:04:12.532Z,102159.55
2018-10-18T18:06:41.203Z,102167.90
2018-10-18T18:09:09.819Z,102160.83
2018-10-18T18:11:38.510Z,102162.59
2018-10-18T18:14:07.086Z,102157.83
2018-10-18T18:16:35.649Z,102168.97
2018-10-18T18:19:05.330Z,102171.75
2018-10-18T18:21:33.913Z,102174.19
2018-10-18T18:24:04.064Z,102176.88
2018-10-18T18:26:44.957Z,102173.98
2018-10-18T18:29:03.837Z,102179.58
2018-10-18T18:31:32.400Z,102176.43
2018-10-18T18:34:01.000Z,102184.84
2018-10-18T18:36:29.522Z,102187.58
2018-10-18T18:38:58.231Z,102190.17
2018-10-18T18:41:26.859Z,102193.27
2018-10-18T18:43:55.548Z,102196.16
2018-10-18T18:46:24.105Z,102192.26
2018-10-18T18:48:52.670Z,102191.91
2018-10-18T18:51:21.300Z,102199.87
2018-10-18T18:53:49.794Z,102190.51
2018-10-18T18:56:18.367Z,102189.03
2018-10-18T18:58:46.966Z,102192.23
2018-10-18T19:01:15.499Z,102197.19
2018-10-18T19:03:44.104Z,102201.85
2018-10-18T19:06:12.733Z,102202.94
2018-10-18T19:08:41.346Z,102200.31
2018-10-18T19:11:09.892Z,102197.09
2018-10-18T19:13:38.458Z,102197.48
2018-10-18T19:16:07.063Z,102195.55
2018-10-18T19:18:35.593Z,102195.95
2018-10-18T19:21:05.755Z,102196.29
2018-10-18T19:23:35.100Z,102197.52
2018-10-18T19:26:06.048Z,102191.89
2018-10-18T19:28:34.801Z,102201.38
2018-10-18T19:31:04.436Z,102211.88
2018-10-18T19:33:33.830Z,102206.08
2018-10-18T19:36:03.748Z,102208.33
2018-10-18T19:38:32.398Z,102207.98
2018-10-18T19:41:00.933Z,102205.48
2018-10-18T19:43:29.457Z,102203.80
2018-10-18T19:45:58.026Z,102204.02
2018-10-18T19:48:26.627Z,102209.51
2018-10-18T19:50:55.322Z,102206.55
2018-10-18T19:53:24.415Z,102207.01
2018-10-18T19:55:53.015Z,102211.62
2018-10-18T19:58:21.578Z,102216.67
2018-10-18T20:00:50.180Z,102218.27
2018-10-18T20:03:18.723Z,102221.98
2018-10-18T20:05:47.264Z,102222.70
2018-10-18T20:08:16.007Z,102226.66
2018-10-18T20:10:44.664Z,102221.70
2018-10-18T20:13:13.285Z,102225.98
2018-10-18T20:15:41.908Z,102224.95
2018-10-18T20:18:10.535Z,102232.13
2018-10-18T20:20:39.058Z,102230.82
2018-10-18T20:23:07.756Z,102226.36
2018-10-18T20:25:36.438Z,102229.94
2018-10-18T20:28:06.270Z,102231.78
2018-10-18T20:30:35.531Z,102233.36
2018-10-18T20:33:05.624Z,102234.98
2018-10-18T20:35:34.136Z,102231.34
2018-10-18T20:38:05.332Z,102236.17
2018-10-18T20:40:33.991Z,102231.62
2018-10-18T20:43:03.718Z,102236.51
2018-10-18T20:45:36.063Z,102240.44
2018-10-18T20:48:06.226Z,102236.17
2018-10-18T20:50:34.769Z,102236.03
2018-10-18T20:53:04.635Z,102236.46
2018-10-18T20:55:33.249Z,102233.59
2018-10-18T20:58:03.905Z,102223.16
2018-10-18T21:00:32.474Z,102226.20
2018-10-18T21:03:03.380Z,102229.45
2018-10-18T21:05:31.916Z,102231.11
2018-10-18T21:08:00.581Z,102229.96
2018-10-18T21:10:29.153Z,102229.88
2018-10-18T21:12:57.839Z,102223.71
2018-10-18T21:15:26.390Z,102226.87
2018-10-18T21:17:54.969Z,102228.82
2018-10-18T21:20:23.500Z,102228.69
2018-10-18T21:22:52.376Z,102230.22
2018-10-18T21:25:21.340Z,102231.91
2018-10-18T21:27:50.021Z,102226.45
2018-10-18T21:30:18.506Z,102232.78
2018-10-18T21:32:47.038Z,102232.25
2018-10-18T21:35:15.695Z,102232.32
2018-10-18T21:37:44.241Z,102227.75
2018-10-18T21:40:12.772Z,102231.73
2018-10-18T21:42:41.417Z,102234.95
2018-10-18T21:45:10.070Z,102235.75
2018-10-18T21:47:38.687Z,102232.16
2018-10-18T21:50:07.515Z,102240.31
2018-10-18T21:52:36.325Z,102239.69
2018-10-18T21:55:05.464Z,102238.59
2018-10-18T21:57:33.987Z,102234.27
2018-10-18T22:00:04.850Z,102238.33
2018-10-18T22:02:33.412Z,102236.22
2018-10-18T22:05:03.456Z,102235.12
2018-10-18T22:07:31.974Z,102239.39
2018-10-18T22:10:00.501Z,102234.74
2018-10-18T22:12:29.081Z,102226.45
2018-10-18T22:14:58.537Z,102219.86
2018-10-18T22:17:27.084Z,102226.06
2018-10-18T22:19:55.702Z,102220.45
2018-10-18T22:22:24.224Z,102224.50
2018-10-18T22:24:52.988Z,102217.16
2018-10-18T22:27:21.500Z,102215.42
2018-10-18T22:29:50.062Z,102213.50
2018-10-18T22:32:18.580Z,102211.61
2018-10-18T22:34:47.129Z,102215.37
2018-10-18T22:37:15.746Z,102216.39
2018-10-18T22:39:44.298Z,102220.70
2018-10-18T22:42:12.893Z,102218.27
2018-10-18T22:44:41.493Z,102215.23
2018-10-18T22:47:10.134Z,102216.81
2018-10-18T22:49:38.607Z,102207.85
2018-10-18T22:52:07.147Z,102207.52
2018-10-18T22:54:37.551Z,102200.58
2018-10-18T22:57:06.160Z,102206.23
2018-10-18T22:59:34.689Z,102201.98
2018-10-18T23:02:06.778Z,102200.00
2018-10-18T23:04:35.380Z,102202.95
2018-10-18T23:07:05.846Z,102207.27
2018-10-18T23:09:34.368Z,102201.30
2018-10-18T23:12:06.223Z,102201.08
2018-10-18T23:14:34.735Z,102196.56
2018-10-18T23:17:05.017Z,102194.30
2018-10-18T23:19:33.563Z,102191.31
2018-10-18T23:22:06.749Z,102186.45
2018-10-18T23:24:37.118Z,102182.69
2018-10-18T23:27:06.746Z,102190.68
2018-10-18T23:29:36.562Z,102187.67
2018-10-18T23:32:05.681Z,102183.45
2018-10-18T23:34:34.209Z,102194.48
2018-10-18T23:37:05.474Z,102192.12
2018-10-18T23:39:34.066Z,102185.52
2018-10-18T23:42:05.780Z,102181.59
2018-10-18T23:44:34.291Z,102179.55
2018-10-18T23:47:05.210Z,102174.58
2018-10-18T23:49:33.682Z,102176.37
2018-10-18T23:52:03.798Z,102173.36
2018-10-18T23:54:32.335Z,102175.27
2018-10-18T23:57:00.890Z,102174.05
2018-10-18T23:59:29.432Z,102175.40
